Time,TemperatureF,DewpointF,PressureIn,WindDirection,WindDirectionDegrees,WindSpeedMPH,WindSpeedGustMPH,Humidity,HourlyPrecipIn,Conditions,Clouds,dailyrainin,SoftwareType,DateUTC
2013-03-11 00:00:00,48.6,24.7,28.94,South,180,1.3,1.3,38,0.00,,,0.00,WSDL version 420,2013-03-11 04:00:00,
2013-03-11 00:02:00,48.6,24.6,28.94,SSE,158,1.1,1.6,39,0.00,,,0.00,WSDL version 420,2013-03-11 04:02:00,
2013-03-11 00:06:00,48.6,24.8,28.94,North,-999,-999.0,-999.0,39,0.00,,,0.00,WSDL version 420,2013-03-11 04:06:00,
2013-03-11 00:08:00,48.6,24.7,28.94,South,180,1.3,2.5,39,0.00,,,0.00,WSDL version 420,2013-03-11 04:08:00,
2013-03-11 00:10:00,48.5,24.7,28.91,NNW,338,0.0,2.5,39,0.00,,,0.00,WSDL version 420,2013-03-11 04:10:00,
2013-03-11 00:14:00,48.7,24.8,28.91,WSW,248,2.7,2.7,39,0.00,,,0.00,WSDL version 420,2013-03-11 04:14:00,
2013-03-11 00:16:00,48.7,24.8,28.91,SW,236,1.1,2.5,39,0.00,,,0.00,WSDL version 420,2013-03-11 04:16:00,
2013-03-11 00:18:00,48.6,24.8,28.91,SE,135,0.0,2.5,39,0.00,,,0.00,WSDL version 420,2013-03-11 04:18:00,
2013-03-11 00:20:00,48.6,24.8,28.91,North,0,0.0,2.5,39,0.00,,,0.00,WSDL version 420,2013-03-11 04:20:00,
2013-03-11 00:24:00,49.0,25.1,28.91,South,180,1.3,2.5,39,0.00,,,0.00,WSDL version 420,2013-03-11 04:24:00,
2013-03-11 00:26:00,49.0,25.1,28.91,North,0,0.0,2.5,39,0.00,,,0.00,WSDL version 420,2013-03-11 04:26:00,
2013-03-11 00:28:00,48.8,25.0,28.91,NE,39,1.2,2.5,39,0.00,,,0.00,WSDL version 420,2013-03-11 04:28:00,
2013-03-11 00:32:00,48.7,24.9,28.91,South,191,0.8,3.1,39,0.00,,,0.00,WSDL version 420,2013-03-11 04:32:00,
2013-03-11 00:34:00,48.6,25.0,28.91,North,0,0.0,3.1,40,0.00,,,0.00,WSDL version 420,2013-03-11 04:34:00,
2013-03-11 00:36:00,48.5,25.0,28.91,South,173,2.5,3.1,39,0.00,,,0.00,WSDL version 420,2013-03-11 04:36:00,
2013-03-11 00:42:00,48.3,24.6,28.91,NNE,23,0.0,2.5,40,0.00,,,0.00,WSDL version 420,2013-03-11 04:42:00,
2013-03-11 00:44:00,48.1,24.6,28.91,North,-999,-999.0,-999.0,40,0.00,,,0.00,WSDL version 420,2013-03-11 04:44:00,
2013-03-11 00:46:00,47.9,24.7,28.91,North,349,1.1,0.0,40,0.00,,,0.00,WSDL version 420,2013-03-11 04:46:00,
2013-03-11 00:50:00,47.7,24.6,28.91,South,180,0.8,1.6,40,0.00,,,0.00,WSDL version 420,2013-03-11 04:50:00,
2013-03-11 00:52:00,47.8,24.6,28.91,SSW,195,0.6,1.6,40,0.00,,,0.00,WSDL version 420,2013-03-11 04:52:00,
2013-03-11 00:54:00,47.8,24.7,28.91,NW,315,0.0,1.6,40,0.00,,,0.00,WSDL version 420,2013-03-11 04:54:00,
2013-03-11 00:56:00,47.8,24.7,28.91,NW,315,0.0,1.6,40,0.00,,,0.00,WSDL version 420,2013-03-11 04:56:00,
2013-03-11 01:00:00,48.0,24.8,28.91,ENE,68,0.0,0.0,40,0.00,,,0.00,WSDL version 420,2013-03-11 05:00:00,
2013-03-11 01:02:00,48.0,24.9,28.91,SSE,152,0.6,2.9,40,0.00,,,0.00,WSDL version 420,2013-03-11 05:02:00,
2013-03-11 01:04:00,48.0,24.9,28.91,NNE,30,0.4,2.9,40,0.00,,,0.00,WSDL version 420,2013-03-11 05:04:00,
2013-03-11 01:10:00,47.9,24.9,28.91,SSE,150,0.0,2.9,40,0.00,,,0.00,WSDL version 420,2013-03-11 05:10:00,
2013-03-11 01:12:00,47.8,24.8,28.91,WNW,293,0.0,0.0,40,0.00,,,0.00,WSDL version 420,2013-03-11 05:12:00,
2013-03-11 01:14:00,47.8,24.9,28.91,WNW,293,0.9,1.1,41,0.00,,,0.00,WSDL version 420,2013-03-11 05:14:00,
2013-03-11 01:18:00,47.8,24.8,28.91,North,-999,-999.0,-999.0,40,0.00,,,0.00,WSDL version 420,2013-03-11 05:18:00,
2013-03-11 01:20:00,47.8,25.0,28.91,North,-999,-999.0,-999.0,41,0.00,,,0.00,WSDL version 420,2013-03-11 05:20:00,
2013-03-11 01:22:00,47.8,25.2,28.91,East,79,0.7,2.5,41,0.00,,,0.00,WSDL version 420,2013-03-11 05:22:00,
2013-03-11 01:26:00,47.7,25.1,28.91,NNE,23,0.0,2.5,41,0.00,,,0.00,WSDL version 420,2013-03-11 05:26:00,
2013-03-11 01:28:00,47.5,25.0,28.91,North,-999,-999.0,-999.0,41,0.00,,,0.00,WSDL version 420,2013-03-11 05:28:00,
2013-03-11 01:32:00,47.4,24.9,28.91,NE,45,0.0,0.0,41,0.00,,,0.00,WSDL version 420,2013-03-11 05:32:00,
2013-03-11 01:34:00,47.3,24.8,28.91,NE,45,0.0,0.0,41,0.00,,,0.00,WSDL version 420,2013-03-11 05:34:00,
2013-03-11 01:36:00,47.3,24.8,28.91,NE,45,0.0,0.0,41,0.00,,,0.00,WSDL version 420,2013-03-11 05:36:00,
2013-03-11 01:40:00,47.2,25.2,28.91,WNW,293,0.0,0.0,42,0.00,,,0.00,WSDL version 420,2013-03-11 05:40:00,
2013-03-11 01:44:00,47.2,25.2,28.91,South,180,0.0,0.0,42,0.00,,,0.00,WSDL version 420,2013-03-11 05:44:00,
2013-03-11 01:46:00,47.2,25.2,28.91,East,90,0.0,0.0,42,0.00,,,0.00,WSDL version 420,2013-03-11 05:46:00,
2013-03-11 01:52:00,47.3,25.4,28.91,NE,45,0.0,0.0,42,0.00,,,0.00,WSDL version 420,2013-03-11 05:52:00,
2013-03-11 01:56:00,47.5,25.5,28.91,NE,45,0.0,0.0,42,0.00,,,0.00,WSDL version 420,2013-03-11 05:56:00,
2013-03-11 01:58:00,47.5,25.5,28.91,NE,45,0.0,0.0,42,0.00,,,0.00,WSDL version 420,2013-03-11 05:58:00,
2013-03-11 02:02:00,47.6,25.6,28.91,East,79,0.0,2.5,42,0.00,,,0.00,WSDL version 420,2013-03-11 06:02:00,
2013-03-11 02:06:00,47.8,25.8,28.91,SW,225,0.0,2.5,42,0.00,,,0.00,WSDL version 420,2013-03-11 06:06:00,
2013-03-11 02:08:00,47.9,25.9,28.91,North,-999,-999.0,-999.0,42,0.00,,,0.00,WSDL version 420,2013-03-11 06:08:00,
2013-03-11 02:10:00,47.9,26.0,28.91,North,-999,-999.0,-999.0,42,0.00,,,0.00,WSDL version 420,2013-03-11 06:10:00,
2013-03-11 02:12:00,48.1,26.0,28.91,East,90,0.0,0.0,41,0.00,,,0.00,WSDL version 420,2013-03-11 06:12:00,
2013-03-11 02:14:00,48.2,26.1,28.91,North,-999,-999.0,-999.0,42,0.00,,,0.00,WSDL version 420,2013-03-11 06:14:00,
2013-03-11 02:18:00,48.4,26.4,28.91,SSE,158,0.0,0.0,42,0.00,,,0.00,WSDL version 420,2013-03-11 06:18:00,
2013-03-11 02:20:00,48.4,26.4,28.91,East,79,0.0,0.0,42,0.00,,,0.00,WSDL version 420,2013-03-11 06:20:00,
2013-03-11 02:24:00,48.7,26.6,28.91,East,90,0.0,0.0,42,0.00,,,0.00,WSDL version 420,2013-03-11 06:24:00,
2013-03-11 02:28:00,49.0,26.9,28.91,NE,45,0.0,0.0,42,0.00,,,0.00,WSDL version 420,2013-03-11 06:28:00,
2013-03-11 02:30:00,49.2,27.1,28.91,North,360,0.0,0.0,42,0.00,,,0.00,WSDL version 420,2013-03-11 06:30:00,
2013-03-11 02:37:00,49.1,27.0,28.91,NE,45,0.0,0.0,42,0.00,,,0.00,WSDL version 420,2013-03-11 06:37:00,
2013-03-11 02:41:00,49.1,27.0,28.91,NE,38,0.0,0.0,42,0.00,,,0.00,WSDL version 420,2013-03-11 06:41:00,
2013-03-11 02:43:00,49.1,26.9,28.91,NE,34,0.0,0.0,42,0.00,,,0.00,WSDL version 420,2013-03-11 06:43:00,
2013-03-11 02:47:00,49.0,26.8,28.91,ENE,68,0.0,0.0,42,0.00,,,0.00,WSDL version 420,2013-03-11 06:47:00,
2013-03-11 02:52:00,49.1,27.0,28.91,ENE,68,0.0,0.0,42,0.00,,,0.00,WSDL version 420,2013-03-11 06:52:00,
2013-03-11 02:57:00,49.2,27.1,28.88,NE,45,0.0,0.0,42,0.00,,,0.00,WSDL version 420,2013-03-11 06:57:00,
2013-03-11 02:59:00,49.3,27.1,28.88,NE,45,0.0,0.0,42,0.00,,,0.00,WSDL version 420,2013-03-11 06:59:00,
2013-03-11 03:03:00,49.3,27.6,28.88,NE,51,0.8,1.3,43,0.00,,,0.00,WSDL version 420,2013-03-11 07:03:00,
2013-03-11 03:05:00,49.3,28.0,28.88,South,173,0.0,1.3,44,0.00,,,0.00,WSDL version 420,2013-03-11 07:05:00,
2013-03-11 03:09:00,49.5,28.5,28.88,ESE,113,0.0,1.3,44,0.00,,,0.00,WSDL version 420,2013-03-11 07:09:00,
2013-03-11 03:13:00,49.7,29.0,28.88,NE,45,0.0,0.0,45,0.00,,,0.00,WSDL version 420,2013-03-11 07:13:00,
2013-03-11 03:17:00,49.8,29.5,28.88,NE,45,0.0,0.0,45,0.00,,,0.00,WSDL version 420,2013-03-11 07:17:00,
2013-03-11 03:21:00,49.8,29.5,28.88,East,101,0.0,0.0,46,0.00,,,0.00,WSDL version 420,2013-03-11 07:21:00,
2013-03-11 03:27:00,49.9,29.4,28.88,North,360,0.0,0.0,45,0.00,,,0.00,WSDL version 420,2013-03-11 07:27:00,
2013-03-11 03:33:00,50.0,30.1,28.88,NE,45,0.0,0.0,46,0.00,,,0.00,WSDL version 420,2013-03-11 07:33:00,
2013-03-11 03:35:00,50.0,30.1,28.88,NE,34,0.0,1.1,46,0.00,,,0.00,WSDL version 420,2013-03-11 07:35:00,
2013-03-11 03:39:00,50.2,30.2,28.85,NE,45,0.0,1.1,46,0.00,,,0.00,WSDL version 420,2013-03-11 07:39:00,
2013-03-11 03:45:00,50.2,30.2,28.85,North,-999,-999.0,-999.0,46,0.00,,,0.00,WSDL version 420,2013-03-11 07:45:00,
2013-03-11 03:47:00,50.2,30.3,28.85,NE,45,0.0,0.0,47,0.00,,,0.00,WSDL version 420,2013-03-11 07:47:00,
2013-03-11 03:53:00,50.4,31.0,28.85,NNE,32,1.0,2.0,47,0.00,,,0.00,WSDL version 420,2013-03-11 07:53:00,
2013-03-11 03:55:00,50.5,31.0,28.85,North,0,0.0,2.0,47,0.00,,,0.00,WSDL version 420,2013-03-11 07:55:00,
2013-03-11 03:57:00,50.5,31.0,28.85,ESE,113,0.0,2.0,47,0.00,,,0.00,WSDL version 420,2013-03-11 07:57:00,
2013-03-11 03:59:00,50.4,30.9,28.85,East,90,0.0,2.0,47,0.00,,,0.00,WSDL version 420,2013-03-11 07:59:00,
2013-03-11 04:02:00,50.4,30.9,28.85,West,270,0.3,2.0,47,0.00,,,0.00,WSDL version 420,2013-03-11 08:02:00,
2013-03-11 04:05:00,50.5,31.1,28.85,SW,225,0.0,1.6,47,0.00,,,0.00,WSDL version 420,2013-03-11 08:05:00,
2013-03-11 04:07:00,50.5,31.1,28.85,South,188,0.0,1.6,47,0.00,,,0.00,WSDL version 420,2013-03-11 08:07:00,
2013-03-11 04:13:00,50.6,31.6,28.85,East,90,0.0,0.0,48,0.00,,,0.00,WSDL version 420,2013-03-11 08:13:00,
2013-03-11 04:15:00,50.6,31.7,28.85,ENE,60,0.0,0.0,48,0.00,,,0.00,WSDL version 420,2013-03-11 08:15:00,
2013-03-11 04:17:00,50.7,31.7,28.85,North,360,0.0,0.0,48,0.00,,,0.00,WSDL version 420,2013-03-11 08:17:00,
2013-03-11 04:21:00,50.9,31.9,28.85,ENE,68,0.0,0.0,48,0.00,,,0.00,WSDL version 420,2013-03-11 08:21:00,
2013-03-11 04:23:00,50.8,31.9,28.85,North,0,0.0,0.0,48,0.00,,,0.00,WSDL version 420,2013-03-11 08:23:00,
2013-03-11 04:25:00,50.8,31.8,28.85,NE,56,0.0,0.0,48,0.00,,,0.00,WSDL version 420,2013-03-11 08:25:00,
2013-03-11 04:29:00,50.7,31.8,28.85,NE,45,0.0,0.0,48,0.00,,,0.00,WSDL version 420,2013-03-11 08:29:00,
2013-03-11 04:31:00,50.8,31.8,28.85,East,101,0.0,0.0,48,0.00,,,0.00,WSDL version 420,2013-03-11 08:31:00,
2013-03-11 04:35:00,50.9,31.9,28.85,NE,56,0.0,0.0,48,0.00,,,0.00,WSDL version 420,2013-03-11 08:35:00,
2013-03-11 04:37:00,50.9,32.0,28.85,East,90,0.0,0.0,49,0.00,,,0.00,WSDL version 420,2013-03-11 08:37:00,
2013-03-11 04:42:00,50.9,32.3,28.85,NW,326,1.8,2.7,49,0.00,,,0.00,WSDL version 420,2013-03-11 08:42:00,
2013-03-11 04:43:00,50.9,32.4,28.85,SSE,162,0.6,2.7,49,0.00,,,0.00,WSDL version 420,2013-03-11 08:43:00,
2013-03-11 04:45:00,50.9,32.4,28.85,ENE,68,0.0,2.7,49,0.00,,,0.00,WSDL version 420,2013-03-11 08:45:00,
2013-03-11 04:47:00,50.9,32.4,28.85,SSE,165,0.0,2.7,49,0.00,,,0.00,WSDL version 420,2013-03-11 08:47:00,
2013-03-11 04:51:00,51.0,32.8,28.85,ESE,107,0.4,0.0,50,0.00,,,0.00,WSDL version 420,2013-03-11 08:51:00,
2013-03-11 04:57:00,51.2,33.2,28.85,SE,124,0.0,0.0,50,0.00,,,0.00,WSDL version 420,2013-03-11 08:57:00,
2013-03-11 05:03:00,51.3,33.3,28.85,ESE,120,0.0,0.0,50,0.00,,,0.00,WSDL version 420,2013-03-11 09:03:00,
2013-03-11 05:05:00,51.3,33.3,28.85,SSW,203,0.0,0.0,50,0.00,,,0.00,WSDL version 420,2013-03-11 09:05:00,
2013-03-11 05:07:00,51.3,33.3,28.85,WNW,293,0.0,0.0,50,0.00,,,0.00,WSDL version 420,2013-03-11 09:07:00,
2013-03-11 05:13:00,51.3,33.3,28.85,North,360,0.0,0.0,50,0.00,,,0.00,WSDL version 420,2013-03-11 09:13:00,
2013-03-11 05:17:00,51.3,33.3,28.85,North,360,0.0,0.0,50,0.00,,,0.00,WSDL version 420,2013-03-11 09:17:00,
2013-03-11 05:21:00,51.3,33.3,28.85,North,360,0.0,0.0,50,0.00,,,0.00,WSDL version 420,2013-03-11 09:21:00,
2013-03-11 05:24:00,51.3,33.3,28.82,North,360,0.0,0.0,50,0.00,,,0.00,WSDL version 420,2013-03-11 09:24:00,
2013-03-11 05:27:00,51.3,33.3,28.82,ENE,68,0.0,0.0,50,0.00,,,0.00,WSDL version 420,2013-03-11 09:27:00,
2013-03-11 05:29:00,51.3,33.3,28.82,NE,45,0.0,0.0,50,0.00,,,0.00,WSDL version 420,2013-03-11 09:29:00,
2013-03-11 05:35:00,51.3,33.5,28.82,East,101,2.2,2.5,51,0.00,,,0.00,WSDL version 420,2013-03-11 09:35:00,
2013-03-11 05:37:00,51.4,33.8,28.82,NE,45,0.0,2.5,51,0.00,,,0.00,WSDL version 420,2013-03-11 09:37:00,
2013-03-11 05:39:00,51.4,33.9,28.85,SE,146,0.0,2.5,51,0.00,,,0.00,WSDL version 420,2013-03-11 09:39:00,
2013-03-11 05:43:00,51.4,33.9,28.85,ESE,120,0.0,2.5,51,0.00,,,0.00,WSDL version 420,2013-03-11 09:43:00,
2013-03-11 05:45:00,51.4,33.9,28.85,ENE,75,0.0,0.0,51,0.00,,,0.00,WSDL version 420,2013-03-11 09:45:00,
2013-03-11 05:49:00,51.4,33.9,28.85,NE,45,0.0,0.0,51,0.00,,,0.00,WSDL version 420,2013-03-11 09:49:00,
2013-03-11 05:53:00,51.4,33.9,28.82,East,81,0.0,0.0,51,0.00,,,0.00,WSDL version 420,2013-03-11 09:53:00,
2013-03-11 05:57:00,51.3,33.8,28.82,ENE,68,0.3,2.5,51,0.00,,,0.00,WSDL version 420,2013-03-11 09:57:00,
2013-03-11 05:59:00,51.3,33.8,28.82,East,84,0.3,2.5,51,0.00,,,0.00,WSDL version 420,2013-03-11 09:59:00,
2013-03-11 06:03:00,51.3,33.8,28.82,SW,225,0.0,2.5,51,0.00,,,0.00,WSDL version 420,2013-03-11 10:03:00,
2013-03-11 06:07:00,51.4,33.9,28.82,SE,135,0.9,2.0,51,0.00,,,0.00,WSDL version 420,2013-03-11 10:07:00,
2013-03-11 06:11:00,51.4,33.9,28.82,NNE,30,0.0,2.2,51,0.00,,,0.00,WSDL version 420,2013-03-11 10:11:00,
2013-03-11 06:13:00,51.4,33.9,28.82,SE,135,1.1,2.2,51,0.00,,,0.00,WSDL version 420,2013-03-11 10:13:00,
2013-03-11 06:18:00,51.4,33.9,28.82,ENE,63,0.0,2.2,51,0.00,,,0.00,WSDL version 420,2013-03-11 10:18:00,
2013-03-11 06:19:00,51.4,33.9,28.82,NE,45,0.0,2.2,51,0.00,,,0.00,WSDL version 420,2013-03-11 10:19:00,
2013-03-11 06:21:00,51.4,33.9,28.82,NE,45,0.0,0.9,51,0.00,,,0.00,WSDL version 420,2013-03-11 10:21:00,
2013-03-11 06:25:00,51.4,33.9,28.82,ESE,108,0.0,0.0,51,0.00,,,0.00,WSDL version 420,2013-03-11 10:25:00,
2013-03-11 06:27:00,51.4,33.9,28.82,SSE,158,0.0,0.0,51,0.00,,,0.00,WSDL version 420,2013-03-11 10:27:00,
2013-03-11 06:33:00,51.4,33.9,28.82,South,191,0.0,0.0,51,0.00,,,0.00,WSDL version 420,2013-03-11 10:33:00,
2013-03-11 06:37:00,51.4,33.9,28.82,SW,225,0.0,0.0,51,0.00,,,0.00,WSDL version 420,2013-03-11 10:37:00,
2013-03-11 06:39:00,51.4,33.9,28.82,West,278,0.0,0.0,51,0.00,,,0.00,WSDL version 420,2013-03-11 10:39:00,
2013-03-11 06:41:00,51.4,33.9,28.82,ENE,68,0.0,0.0,51,0.00,,,0.00,WSDL version 420,2013-03-11 10:41:00,
2013-03-11 06:43:00,51.4,33.9,28.82,NNE,23,0.0,0.0,51,0.00,,,0.00,WSDL version 420,2013-03-11 10:43:00,
2013-03-11 06:49:00,51.4,33.9,28.82,South,180,0.0,0.0,51,0.00,,,0.00,WSDL version 420,2013-03-11 10:49:00,
2013-03-11 06:52:00,51.4,34.0,28.82,ESE,113,0.0,0.0,51,0.00,,,0.00,WSDL version 420,2013-03-11 10:52:00,
2013-03-11 06:55:00,51.4,34.1,28.85,SE,143,0.0,0.0,51,0.00,,,0.00,WSDL version 420,2013-03-11 10:55:00,
2013-03-11 06:57:00,51.4,34.1,28.85,North,360,0.0,0.0,51,0.00,,,0.00,WSDL version 420,2013-03-11 10:57:00,
2013-03-11 07:01:00,51.4,34.1,28.85,North,360,0.0,0.0,51,0.00,,,0.00,WSDL version 420,2013-03-11 11:01:00,
2013-03-11 07:04:00,51.4,34.1,28.85,NE,45,0.0,0.0,51,0.00,,,0.00,WSDL version 420,2013-03-11 11:04:00,
2013-03-11 07:07:00,51.4,34.3,28.85,NNE,23,0.0,1.1,52,0.00,,,0.00,WSDL version 420,2013-03-11 11:07:00,
2013-03-11 07:09:00,51.4,34.4,28.85,NW,306,0.0,1.1,52,0.00,,,0.00,WSDL version 420,2013-03-11 11:09:00,
2013-03-11 07:12:00,51.4,34.4,28.85,ENE,64,0.0,1.1,52,0.00,,,0.00,WSDL version 420,2013-03-11 11:12:00,
2013-03-11 07:15:00,51.4,34.4,28.85,ENE,68,0.0,0.0,52,0.00,,,0.00,WSDL version 420,2013-03-11 11:15:00,
2013-03-11 07:19:00,51.4,34.4,28.85,SE,124,0.0,0.0,52,0.00,,,0.00,WSDL version 420,2013-03-11 11:19:00,
2013-03-11 07:25:00,51.3,34.3,28.85,SE,129,0.0,0.0,52,0.00,,,0.00,WSDL version 420,2013-03-11 11:25:00,
2013-03-11 07:27:00,51.3,34.3,28.85,NE,45,0.0,0.0,52,0.00,,,0.00,WSDL version 420,2013-03-11 11:27:00,
2013-03-11 07:32:00,51.2,34.2,28.85,NE,45,0.0,0.0,52,0.00,,,0.00,WSDL version 420,2013-03-11 11:32:00,
2013-03-11 07:33:00,51.2,34.2,28.85,NE,45,0.0,0.0,52,0.00,,,0.00,WSDL version 420,2013-03-11 11:33:00,
2013-03-11 07:37:00,51.0,34.1,28.85,North,360,0.0,0.0,53,0.00,,,0.00,WSDL version 420,2013-03-11 11:37:00,
2013-03-11 07:39:00,50.9,34.0,28.85,North,11,0.0,0.0,52,0.00,,,0.00,WSDL version 420,2013-03-11 11:39:00,
2013-03-11 07:41:00,50.9,34.0,28.85,East,83,0.4,2.2,52,0.00,,,0.00,WSDL version 420,2013-03-11 11:41:00,
2013-03-11 07:45:00,50.9,33.9,28.85,North,0,0.0,2.2,52,0.00,,,0.00,WSDL version 420,2013-03-11 11:45:00,
2013-03-11 07:47:00,50.9,33.9,28.85,SE,126,0.0,2.2,52,0.00,,,0.00,WSDL version 420,2013-03-11 11:47:00,
2013-03-11 07:51:00,50.9,33.9,28.85,SSE,158,2.0,2.0,52,0.00,,,0.00,WSDL version 420,2013-03-11 11:51:00,
2013-03-11 07:57:00,51.1,34.1,28.85,North,360,0.7,2.2,52,0.00,,,0.00,WSDL version 420,2013-03-11 11:57:00,
2013-03-11 08:03:00,51.2,34.2,28.85,NE,45,1.6,2.2,52,0.00,,,0.00,WSDL version 420,2013-03-11 12:03:00,
2013-03-11 08:09:00,51.3,34.6,28.85,East,90,0.0,3.4,53,0.00,,,0.00,WSDL version 420,2013-03-11 12:09:00,
2013-03-11 08:11:00,51.3,34.6,28.85,NNE,23,1.3,3.4,52,0.00,,,0.00,WSDL version 420,2013-03-11 12:11:00,
2013-03-11 08:13:00,51.3,34.5,28.85,NE,45,0.0,3.4,52,0.00,,,0.00,WSDL version 420,2013-03-11 12:13:00,
2013-03-11 08:15:00,51.3,34.5,28.85,NE,45,0.0,1.6,53,0.00,,,0.00,WSDL version 420,2013-03-11 12:15:00,
2013-03-11 08:17:00,51.3,34.4,28.85,SE,126,0.0,1.1,52,0.00,,,0.00,WSDL version 420,2013-03-11 12:17:00,
2013-03-11 08:19:00,51.3,34.3,28.85,SE,140,0.0,1.1,52,0.00,,,0.00,WSDL version 420,2013-03-11 12:19:00,
2013-03-11 08:25:00,51.3,34.4,28.85,North,360,0.0,0.0,53,0.00,,,0.00,WSDL version 420,2013-03-11 12:25:00,
2013-03-11 08:27:00,51.3,34.4,28.85,WSW,248,0.0,0.0,52,0.00,,,0.00,WSDL version 420,2013-03-11 12:27:00,
2013-03-11 08:31:00,51.3,34.3,28.85,North,-999,-999.0,-999.0,53,0.00,,,0.00,WSDL version 420,2013-03-11 12:31:00,
2013-03-11 08:33:00,51.3,34.6,28.85,East,101,0.0,3.1,53,0.00,,,0.00,WSDL version 420,2013-03-11 12:33:00,
2013-03-11 08:35:00,51.3,34.7,28.85,South,180,0.0,3.1,53,0.00,,,0.00,WSDL version 420,2013-03-11 12:35:00,
2013-03-11 08:39:00,51.4,34.8,28.85,ENE,60,0.0,0.0,53,0.00,,,0.00,WSDL version 420,2013-03-11 12:39:00,
2013-03-11 08:43:00,51.4,34.7,28.85,ESE,120,0.0,0.0,52,0.00,,,0.00,WSDL version 420,2013-03-11 12:43:00,
2013-03-11 08:49:00,51.4,34.5,28.85,South,169,0.0,0.0,52,0.00,,,0.00,WSDL version 420,2013-03-11 12:49:00,
2013-03-11 08:55:00,51.4,34.7,28.85,ESE,113,0.0,1.6,53,0.00,,,0.00,WSDL version 420,2013-03-11 12:55:00,
2013-03-11 08:57:00,51.4,34.8,28.85,SE,135,1.0,1.6,53,0.00,,,0.00,WSDL version 420,2013-03-11 12:57:00,
2013-03-11 08:59:00,51.4,35.0,28.85,NE,45,0.7,3.6,54,0.00,,,0.00,WSDL version 420,2013-03-11 12:59:00,
2013-03-11 09:07:00,51.3,35.2,28.85,NE,45,0.0,3.6,54,0.00,,,0.00,WSDL version 420,2013-03-11 13:07:00,
2013-03-11 09:09:00,51.3,35.2,28.85,NE,45,0.0,1.6,54,0.00,,,0.00,WSDL version 420,2013-03-11 13:09:00,
2013-03-11 09:15:00,51.3,35.2,28.85,ESE,113,0.0,1.6,54,0.00,,,0.00,WSDL version 420,2013-03-11 13:15:00,
2013-03-11 09:19:00,51.3,35.2,28.85,ESE,113,0.0,1.6,54,0.00,,,0.00,WSDL version 420,2013-03-11 13:19:00,
2013-03-11 09:25:00,51.3,35.2,28.85,ENE,68,1.0,2.0,54,0.00,,,0.00,WSDL version 420,2013-03-11 13:25:00,
2013-03-11 09:27:00,51.3,35.2,28.85,SSE,158,0.0,2.0,54,0.00,,,0.00,WSDL version 420,2013-03-11 13:27:00,
2013-03-11 09:33:00,51.3,35.6,28.85,West,270,0.0,2.0,55,0.00,,,0.00,WSDL version 420,2013-03-11 13:33:00,
2013-03-11 09:35:00,51.2,35.6,28.85,South,180,0.0,0.0,55,0.00,,,0.00,WSDL version 420,2013-03-11 13:35:00,
2013-03-11 09:41:00,51.1,35.8,28.85,NNE,23,0.0,0.0,56,0.00,,,0.00,WSDL version 420,2013-03-11 13:41:00,
2013-03-11 09:45:00,51.1,35.9,28.85,NNE,23,0.0,0.0,56,0.00,,,0.00,WSDL version 420,2013-03-11 13:45:00,
2013-03-11 09:47:00,51.1,35.9,28.85,NE,45,0.0,0.0,56,0.00,,,0.00,WSDL version 420,2013-03-11 13:47:00,
2013-03-11 09:53:00,51.1,35.9,28.85,West,278,0.0,0.0,56,0.00,,,0.00,WSDL version 420,2013-03-11 13:53:00,
2013-03-11 09:55:00,51.1,35.9,28.85,SW,225,0.0,0.0,56,0.00,,,0.00,WSDL version 420,2013-03-11 13:55:00,
2013-03-11 09:57:00,51.1,35.9,28.85,SW,225,0.0,0.0,56,0.00,,,0.00,WSDL version 420,2013-03-11 13:57:00,
2013-03-11 10:03:00,51.3,36.1,28.85,East,90,0.0,0.0,56,0.00,,,0.00,WSDL version 420,2013-03-11 14:03:00,
2013-03-11 10:05:00,51.3,36.1,28.85,ENE,60,0.0,0.0,56,0.00,,,0.00,WSDL version 420,2013-03-11 14:05:00,
2013-03-11 10:08:00,51.3,36.1,28.82,NE,45,0.0,0.0,56,0.00,,,0.00,WSDL version 420,2013-03-11 14:08:00,
2013-03-11 10:14:00,51.4,36.5,28.82,ENE,68,0.0,0.0,57,0.00,,,0.00,WSDL version 420,2013-03-11 14:14:00,
2013-03-11 10:16:00,51.4,36.7,28.82,NNE,23,0.0,0.0,57,0.00,,,0.00,WSDL version 420,2013-03-11 14:16:00,
2013-03-11 10:20:00,51.5,36.8,28.82,NNE,23,0.0,0.0,57,0.00,,,0.00,WSDL version 420,2013-03-11 14:20:00,
2013-03-11 10:22:00,51.6,36.9,28.82,NNE,23,0.0,0.0,57,0.00,,,0.00,WSDL version 420,2013-03-11 14:22:00,
2013-03-11 10:24:00,51.6,36.9,28.85,NNE,23,0.0,0.0,57,0.00,,,0.00,WSDL version 420,2013-03-11 14:24:00,
2013-03-11 10:28:00,51.7,36.6,28.85,NNE,23,0.0,0.0,56,0.00,,,0.00,WSDL version 420,2013-03-11 14:28:00,
2013-03-11 10:30:00,51.7,36.5,28.85,NNE,23,0.0,0.0,56,0.00,,,0.00,WSDL version 420,2013-03-11 14:30:00,
2013-03-11 10:36:00,51.9,36.7,28.85,NNE,23,0.0,0.0,56,0.00,,,0.00,WSDL version 420,2013-03-11 14:36:00,
2013-03-11 10:38:00,52.0,36.8,28.85,NNE,23,0.0,0.0,56,0.00,,,0.00,WSDL version 420,2013-03-11 14:38:00,
2013-03-11 10:40:00,52.0,36.8,28.82,East,90,0.0,0.0,56,0.00,,,0.00,WSDL version 420,2013-03-11 14:40:00,
2013-03-11 10:44:00,52.0,36.8,28.82,NW,315,0.0,0.0,56,0.00,,,0.00,WSDL version 420,2013-03-11 14:44:00,
2013-03-11 10:46:00,52.1,36.7,28.82,SSW,195,1.3,2.2,55,0.00,,,0.00,WSDL version 420,2013-03-11 14:46:00,
2013-03-11 10:50:00,52.2,36.5,28.82,North,-999,-999.0,-999.0,55,0.00,,,0.00,WSDL version 420,2013-03-11 14:50:00,
2013-03-11 10:52:00,52.2,36.6,28.82,North,-999,-999.0,-999.0,55,0.00,,,0.00,WSDL version 420,2013-03-11 14:52:00,
2013-03-11 10:58:00,52.3,36.7,28.82,ENE,68,0.0,0.0,55,0.00,,,0.00,WSDL version 420,2013-03-11 14:58:00,
2013-03-11 11:02:00,52.3,36.6,28.82,East,90,0.0,0.0,54,0.00,,,0.00,WSDL version 420,2013-03-11 15:02:00,
2013-03-11 11:06:00,52.3,36.2,28.82,ESE,120,0.0,0.0,54,0.00,,,0.00,WSDL version 420,2013-03-11 15:06:00,
2013-03-11 11:12:00,52.5,36.4,28.82,North,360,0.0,0.0,54,0.00,,,0.00,WSDL version 420,2013-03-11 15:12:00,
2013-03-11 11:14:00,52.5,36.4,28.82,NE,45,0.0,0.0,54,0.00,,,0.00,WSDL version 420,2013-03-11 15:14:00,
2013-03-11 11:16:00,52.6,36.4,28.82,North,-999,-999.0,-999.0,54,0.00,,,0.00,WSDL version 420,2013-03-11 15:16:00,
2013-03-11 11:18:00,52.6,36.5,28.82,North,-999,-999.0,-999.0,54,0.00,,,0.00,WSDL version 420,2013-03-11 15:18:00,
2013-03-11 11:20:00,52.7,36.5,28.82,NW,315,0.0,0.0,54,0.00,,,0.00,WSDL version 420,2013-03-11 15:20:00,
2013-03-11 11:25:00,52.7,36.4,28.82,North,0,0.0,0.0,53,0.00,,,0.00,WSDL version 420,2013-03-11 15:25:00,
2013-03-11 11:27:00,52.6,36.1,28.82,NNE,23,0.0,0.0,53,0.00,,,0.00,WSDL version 420,2013-03-11 15:27:00,
2013-03-11 11:31:00,52.6,35.9,28.82,North,360,0.0,0.0,53,0.00,,,0.00,WSDL version 420,2013-03-11 15:31:00,
2013-03-11 11:35:00,52.6,36.1,28.82,North,360,0.0,0.0,54,0.00,,,0.00,WSDL version 420,2013-03-11 15:35:00,
2013-03-11 11:37:00,52.7,36.4,28.82,North,360,0.4,1.6,54,0.00,,,0.00,WSDL version 420,2013-03-11 15:37:00,
2013-03-11 11:43:00,52.8,36.5,28.82,North,360,0.0,1.6,53,0.00,,,0.00,WSDL version 420,2013-03-11 15:43:00,
2013-03-11 11:45:00,52.9,36.3,28.82,North,0,0.0,1.6,53,0.00,,,0.00,WSDL version 420,2013-03-11 15:45:00,
2013-03-11 11:49:00,52.9,36.2,28.82,North,0,0.0,0.0,53,0.00,,,0.00,WSDL version 420,2013-03-11 15:49:00,
2013-03-11 11:51:00,52.9,36.2,28.82,North,-999,-999.0,-999.0,53,0.00,,,0.00,WSDL version 420,2013-03-11 15:51:00,
2013-03-11 11:53:00,52.9,36.2,28.82,North,-999,-999.0,-999.0,53,0.00,,,0.00,WSDL version 420,2013-03-11 15:53:00,
2013-03-11 11:57:00,52.9,36.2,28.82,North,360,0.0,0.0,53,0.00,,,0.00,WSDL version 420,2013-03-11 15:57:00,
2013-03-11 11:59:00,52.9,36.2,28.82,North,360,0.0,0.0,53,0.00,,,0.00,WSDL version 420,2013-03-11 15:59:00,